Time;durP1;ratioP1;P1;durP2;ratioP2;P2;SDS_P1;SDS_P2;PMS_P1;PMS_P2;Temp;Humidity;BMP_temperature;BMP_pressure;BME280_temperature;BME280_humidity;BME280_pressure;Samples;Min_cycle;Max_cycle;Signal;HPM_P1;HPM_P2
2022/07/25 00:01:54;;;;;;;;;;;26.80;79.60;;;;;;5092925;28;20254;-61
2022/07/25 00:04:20;;;;;;;;;;;26.90;79.80;;;;;;5093891;28;20398;-61
2022/07/25 00:06:45;;;;;;;;;;;26.80;79.40;;;;;;5074437;28;19936;-61
2022/07/25 00:09:11;;;;;;;;;;;26.70;79.50;;;;;;5092145;28;19924;-61
2022/07/25 00:11:36;;;;;;;;;;;26.30;79.20;;;;;;5120827;27;19967;-61
2022/07/25 00:14:02;;;;;;;;;;;26.80;79.80;;;;;;5074159;28;19932;-61
2022/07/25 00:16:28;;;;;;;;;;;26.80;79.60;;;;;;5085152;28;20296;-61
2022/07/25 00:18:53;;;;;;;;;;;26.70;79.50;;;;;;5092759;28;19924;-61
2022/07/25 00:21:19;;;;;;;;;;;26.60;79.50;;;;;;5090660;28;19924;-61
2022/07/25 00:23:45;;;;;;;;;;;26.60;79.60;;;;;;5092552;28;19975;-61
2022/07/25 00:26:10;;;;;;;;;;;26.50;79.40;;;;;;5109622;28;20377;-61
2022/07/25 00:28:36;;;;;;;;;;;26.60;79.70;;;;;;5091263;28;20468;-61
2022/07/25 00:31:01;;;;;;;;;;;26.80;79.60;;;;;;5084584;28;20283;-61
2022/07/25 00:33:27;;;;;;;;;;;26.70;79.70;;;;;;5080327;28;19925;-61
2022/07/25 00:35:52;;;;;;;;;;;26.80;79.70;;;;;;5091718;28;20335;-61
2022/07/25 00:38:18;;;;;;;;;;;26.70;79.70;;;;;;5073576;28;19931;-61
2022/07/25 00:40:43;;;;;;;;;;;26.50;79.50;;;;;;5076371;28;20010;-64
2022/07/25 00:43:09;;;;;;;;;;;26.50;79.60;;;;;;5077855;28;20063;-61
2022/07/25 00:45:34;;;;;;;;;;;26.70;79.70;;;;;;5077078;28;19924;-61
2022/07/25 00:48:00;;;;;;;;;;;26.60;79.70;;;;;;5092446;28;20472;-61
2022/07/25 00:50:26;;;;;;;;;;;26.60;79.60;;;;;;5086962;28;19924;-62
2022/07/25 00:52:51;;;;;;;;;;;26.60;79.70;;;;;;5084806;28;19969;-61
2022/07/25 00:55:17;;;;;;;;;;;26.60;79.60;;;;;;5083679;28;19935;-61
2022/07/25 00:57:42;;;;;;;;;;;26.70;79.70;;;;;;5076456;28;19924;-62
2022/07/25 01:00:09;;;;;;;;;;;26.70;79.80;;;;;;5078027;28;19994;-61
2022/07/25 01:02:35;;;;;;;;;;;26.70;79.40;;;;;;5092633;28;19923;-61
2022/07/25 01:05:02;;;;;;;;;;;26.70;79.70;;;;;;5096016;28;20404;-61
2022/07/25 01:07:28;;;;;;;;;;;27.30;80.40;;;;;;5095326;28;19924;-61
2022/07/25 01:09:53;;;;;;;;;;;26.60;79.80;;;;;;5095604;28;20316;-61
2022/07/25 01:12:19;;;;;;;;;;;26.80;79.80;;;;;;5110182;28;19924;-61
2022/07/25 01:14:44;;;;;;;;;;;26.70;79.70;;;;;;5091841;28;19947;-61
2022/07/25 01:17:12;;;;;;;;;;;26.70;79.80;;;;;;5097547;28;20337;-61
2022/07/25 01:19:37;;;;;;;;;;;26.80;80.00;;;;;;5097293;28;19969;-61
2022/07/25 01:22:03;;;;;;;;;;;26.70;79.80;;;;;;5094160;28;20011;-61
2022/07/25 01:24:28;;;;;;;;;;;26.60;79.80;;;;;;5091312;28;20389;-61
2022/07/25 01:26:54;;;;;;;;;;;26.50;79.70;;;;;;5096072;28;19930;-61
2022/07/25 01:29:20;;;;;;;;;;;26.60;79.80;;;;;;5097318;28;20021;-61
2022/07/25 01:31:45;;;;;;;;;;;26.60;79.70;;;;;;5082046;28;19935;-61
2022/07/25 01:34:11;;;;;;;;;;;26.50;79.70;;;;;;5080332;28;19978;-61
2022/07/25 01:36:36;;;;;;;;;;;26.60;79.80;;;;;;5091643;28;19924;-60
2022/07/25 01:39:02;;;;;;;;;;;26.50;79.80;;;;;;5076962;28;19931;-61
2022/07/25 01:41:28;;;;;;;;;;;26.60;79.70;;;;;;5088104;28;19928;-61
2022/07/25 01:43:53;;;;;;;;;;;26.50;79.70;;;;;;5076601;28;19924;-61
2022/07/25 01:46:19;;;;;;;;;;;26.60;79.90;;;;;;5125809;27;20381;-62
2022/07/25 01:48:44;;;;;;;;;;;26.70;80.00;;;;;;5095795;28;20018;-61
2022/07/25 01:51:10;;;;;;;;;;;26.80;79.90;;;;;;5093338;28;19928;-61
2022/07/25 01:53:36;;;;;;;;;;;26.70;80.60;;;;;;5093087;28;20023;-61
2022/07/25 01:56:02;;;;;;;;;;;26.50;79.80;;;;;;5085231;28;19947;-62
2022/07/25 01:58:28;;;;;;;;;;;26.50;80.00;;;;;;5085653;28;19925;-62
2022/07/25 02:00:53;;;;;;;;;;;26.60;79.70;;;;;;5087747;28;19985;-61
2022/07/25 02:03:31;;;;;;;;;;;26.20;79.70;;;;;;5076444;28;19924;-61
2022/07/25 02:05:57;;;;;;;;;;;26.50;78.90;;;;;;5084093;28;19935;-61
2022/07/25 02:08:22;;;;;;;;;;;26.40;79.90;;;;;;5090545;28;19924;-61
2022/07/25 02:10:48;;;;;;;;;;;26.50;79.90;;;;;;5094949;28;19931;-61
2022/07/25 02:13:13;;;;;;;;;;;26.40;79.90;;;;;;5094924;28;19978;-61
2022/07/25 02:15:39;;;;;;;;;;;26.60;80.00;;;;;;5086154;28;19924;-62
2022/07/25 02:18:05;;;;;;;;;;;26.60;80.00;;;;;;5083691;28;19924;-61
2022/07/25 02:20:30;;;;;;;;;;;26.60;79.90;;;;;;5112067;28;19950;-61
2022/07/25 02:22:56;;;;;;;;;;;26.50;80.00;;;;;;5094324;28;19974;-61
2022/07/25 02:25:21;;;;;;;;;;;26.20;79.70;;;;;;5094861;28;19947;-61
2022/07/25 02:27:47;;;;;;;;;;;26.30;79.90;;;;;;5083808;28;19925;-62
2022/07/25 02:30:12;;;;;;;;;;;26.50;80.10;;;;;;5077043;28;19932;-61
2022/07/25 02:32:38;;;;;;;;;;;26.50;79.90;;;;;;5084236;28;20275;-62
2022/07/25 02:35:05;;;;;;;;;;;26.40;79.90;;;;;;5096150;28;19931;-62
2022/07/25 02:37:30;;;;;;;;;;;26.40;79.70;;;;;;5091155;28;19924;-61
2022/07/25 02:39:56;;;;;;;;;;;26.40;80.10;;;;;;5092200;28;20345;-61
2022/07/25 02:42:21;;;;;;;;;;;26.60;80.00;;;;;;5095924;28;19931;-61
2022/07/25 02:44:47;;;;;;;;;;;26.50;80.10;;;;;;5095859;28;19932;-61
2022/07/25 02:47:12;;;;;;;;;;;26.40;80.00;;;;;;5094322;28;20404;-61
2022/07/25 02:49:38;;;;;;;;;;;26.70;80.10;;;;;;5090538;28;19929;-61
2022/07/25 02:52:04;;;;;;;;;;;26.40;79.80;;;;;;5092450;28;20393;-61
2022/07/25 02:54:29;;;;;;;;;;;26.40;80.00;;;;;;5078633;28;19947;-63
2022/07/25 02:56:55;;;;;;;;;;;26.60;80.00;;;;;;5096042;28;20018;-61
2022/07/25 02:59:20;;;;;;;;;;;26.40;80.00;;;;;;5083696;28;19925;-61
2022/07/25 03:01:46;;;;;;;;;;;26.60;80.10;;;;;;5086289;28;19924;-61
2022/07/25 03:04:11;;;;;;;;;;;26.50;80.20;;;;;;5093692;28;20289;-61
2022/07/25 03:06:37;;;;;;;;;;;26.40;79.80;;;;;;5093093;28;19930;-61
2022/07/25 03:09:03;;;;;;;;;;;26.40;80.00;;;;;;5092151;28;19963;-61
2022/07/25 03:11:29;;;;;;;;;;;26.40;80.20;;;;;;5082310;28;19977;-61
2022/07/25 03:13:54;;;;;;;;;;;26.60;80.20;;;;;;5093750;28;20289;-61
2022/07/25 03:16:20;;;;;;;;;;;26.20;79.90;;;;;;5093635;28;20022;-61
2022/07/25 03:18:45;;;;;;;;;;;26.20;79.90;;;;;;5093756;28;20401;-61
2022/07/25 03:21:11;;;;;;;;;;;26.40;79.90;;;;;;5079809;28;19924;-62
2022/07/25 03:23:37;;;;;;;;;;;26.20;79.90;;;;;;5090879;28;19997;-61
2022/07/25 03:26:03;;;;;;;;;;;26.30;79.80;;;;;;5094825;28;19931;-61
2022/07/25 03:28:28;;;;;;;;;;;26.50;79.90;;;;;;5095119;28;19924;-61
2022/07/25 03:30:54;;;;;;;;;;;26.50;79.90;;;;;;5086123;28;20286;-61
2022/07/25 03:33:19;;;;;;;;;;;26.10;79.70;;;;;;5085924;28;20019;-61
2022/07/25 03:35:45;;;;;;;;;;;26.30;79.70;;;;;;5094559;28;19939;-61
2022/07/25 03:38:11;;;;;;;;;;;26.40;79.80;;;;;;5091932;28;19924;-61
2022/07/25 03:40:36;;;;;;;;;;;26.60;80.00;;;;;;5103038;28;19924;-62
2022/07/25 03:43:02;;;;;;;;;;;26.30;79.80;;;;;;5077873;28;19924;-61
2022/07/25 03:45:27;;;;;;;;;;;26.50;79.80;;;;;;5094661;28;20401;-61
2022/07/25 03:47:53;;;;;;;;;;;26.30;79.80;;;;;;5093117;28;19923;-61
2022/07/25 03:50:19;;;;;;;;;;;26.40;79.70;;;;;;5093073;28;19943;-61
2022/07/25 03:52:44;;;;;;;;;;;26.20;79.70;;;;;;5090399;28;20094;-61
2022/07/25 03:55:10;;;;;;;;;;;26.30;79.70;;;;;;5078544;28;19920;-61
2022/07/25 03:57:35;;;;;;;;;;;26.20;79.60;;;;;;5074814;28;20297;-62
2022/07/25 04:00:02;;;;;;;;;;;26.20;79.60;;;;;;5074355;28;19924;-61
2022/07/25 04:02:27;;;;;;;;;;;26.30;79.30;;;;;;5086664;28;20328;-61
2022/07/25 04:04:53;;;;;;;;;;;26.20;79.60;;;;;;5088680;28;19931;-62
2022/07/25 04:07:18;;;;;;;;;;;26.10;79.30;;;;;;5110208;28;19971;-61
2022/07/25 04:09:44;;;;;;;;;;;26.20;79.60;;;;;;5094121;28;19924;-61
2022/07/25 04:12:10;;;;;;;;;;;26.10;79.50;;;;;;5087408;28;20041;-62
2022/07/25 04:14:35;;;;;;;;;;;26.30;79.60;;;;;;5079941;28;19943;-61
2022/07/25 04:17:01;;;;;;;;;;;26.20;79.50;;;;;;5093401;28;19928;-61
2022/07/25 04:19:26;;;;;;;;;;;26.50;79.80;;;;;;5093943;28;20289;-61
2022/07/25 04:21:52;;;;;;;;;;;26.40;79.60;;;;;;5092330;28;19967;-61
2022/07/25 04:24:18;;;;;;;;;;;26.50;79.80;;;;;;5081241;28;19951;-61
2022/07/25 04:26:43;;;;;;;;;;;26.50;79.70;;;;;;5083290;28;19924;-61
2022/07/25 04:29:09;;;;;;;;;;;26.50;79.80;;;;;;5093978;28;19924;-61
2022/07/25 04:31:34;;;;;;;;;;;26.30;79.50;;;;;;5086263;28;20374;-61
2022/07/25 04:34:00;;;;;;;;;;;26.40;79.70;;;;;;5090417;28;20003;-61
2022/07/25 04:36:26;;;;;;;;;;;26.30;79.60;;;;;;5077073;28;19932;-61
2022/07/25 04:38:52;;;;;;;;;;;26.20;79.50;;;;;;5092980;28;19924;-61
2022/07/25 04:41:17;;;;;;;;;;;26.50;79.90;;;;;;5092065;28;19977;-61
2022/07/25 04:43:43;;;;;;;;;;;26.50;79.70;;;;;;5093993;28;20381;-61
2022/07/25 04:46:08;;;;;;;;;;;26.40;79.60;;;;;;5087884;28;20022;-64
2022/07/25 04:48:34;;;;;;;;;;;26.40;79.60;;;;;;5085754;28;19931;-61
2022/07/25 04:51:00;;;;;;;;;;;26.30;79.50;;;;;;5093904;28;19967;-61
2022/07/25 04:53:25;;;;;;;;;;;26.50;79.80;;;;;;5093201;28;19929;-61
2022/07/25 04:55:51;;;;;;;;;;;26.50;79.60;;;;;;5078913;28;20019;-61
2022/07/25 04:58:16;;;;;;;;;;;26.40;79.60;;;;;;5088500;28;19930;-61
2022/07/25 05:00:42;;;;;;;;;;;26.30;79.40;;;;;;5073449;28;20289;-61
2022/07/25 05:03:08;;;;;;;;;;;26.70;79.60;;;;;;5074041;28;19964;-61
2022/07/25 05:05:33;;;;;;;;;;;26.50;79.30;;;;;;5110147;28;20339;-64
2022/07/25 05:07:59;;;;;;;;;;;26.60;79.40;;;;;;5091807;28;20431;-61
2022/07/25 05:10:25;;;;;;;;;;;27.00;79.30;;;;;;5073277;28;20003;-61
2022/07/25 05:12:50;;;;;;;;;;;27.00;79.30;;;;;;5089231;28;19931;-61
2022/07/25 05:15:16;;;;;;;;;;;27.00;78.70;;;;;;5073619;28;19924;-61
2022/07/25 05:17:42;;;;;;;;;;;27.00;78.30;;;;;;5082705;28;20330;-61
2022/07/25 05:20:08;;;;;;;;;;;26.80;78.00;;;;;;5079423;28;19925;-61
2022/07/25 05:22:33;;;;;;;;;;;27.20;77.90;;;;;;5074099;28;19943;-61
2022/07/25 05:25:01;;;;;;;;;;;27.10;78.10;;;;;;5073367;28;20293;-61
2022/07/25 05:27:27;;;;;;;;;;;27.00;78.10;;;;;;5074765;28;19925;-62
2022/07/25 05:29:52;;;;;;;;;;;27.30;78.20;;;;;;5088535;28;20305;-61
2022/07/25 05:32:18;;;;;;;;;;;27.30;78.10;;;;;;5092217;28;19924;-61
2022/07/25 05:34:44;;;;;;;;;;;27.40;78.20;;;;;;5093362;28;19924;-61
2022/07/25 05:37:10;;;;;;;;;;;27.10;77.80;;;;;;5091552;28;19932;-61
2022/07/25 05:39:38;;;;;;;;;;;27.20;77.80;;;;;;5085094;28;19928;-61
2022/07/25 05:42:04;;;;;;;;;;;27.20;77.70;;;;;;5093458;28;20015;-61
2022/07/25 05:44:29;;;;;;;;;;;27.40;77.70;;;;;;5112530;28;20006;-62
2022/07/25 05:46:55;;;;;;;;;;;27.60;77.80;;;;;;5095713;28;19932;-61
2022/07/25 05:49:21;;;;;;;;;;;27.50;77.40;;;;;;5092030;28;19928;-61
2022/07/25 05:51:46;;;;;;;;;;;27.60;77.50;;;;;;5086459;28;20365;-61
2022/07/25 05:54:12;;;;;;;;;;;27.70;77.70;;;;;;5076318;28;20286;-61
2022/07/25 05:56:38;;;;;;;;;;;27.70;77.60;;;;;;5084583;28;19924;-61
2022/07/25 05:59:03;;;;;;;;;;;27.80;77.70;;;;;;5095445;28;19977;-61
2022/07/25 06:01:29;;;;;;;;;;;27.60;77.50;;;;;;5085699;28;19932;-62
2022/07/25 06:03:54;;;;;;;;;;;27.60;77.60;;;;;;5094671;28;19931;-61
2022/07/25 06:06:20;;;;;;;;;;;27.40;77.30;;;;;;5096717;28;19924;-61
2022/07/25 06:08:46;;;;;;;;;;;27.70;77.60;;;;;;5096671;28;19928;-62
2022/07/25 06:11:11;;;;;;;;;;;27.40;77.30;;;;;;5083484;28;20389;-66
2022/07/25 06:13:37;;;;;;;;;;;27.50;77.80;;;;;;5078528;28;19936;-68
2022/07/25 06:16:03;;;;;;;;;;;27.60;77.40;;;;;;5074931;28;20018;-61
2022/07/25 06:18:29;;;;;;;;;;;27.70;77.30;;;;;;5075632;28;19948;-62
2022/07/25 06:20:54;;;;;;;;;;;27.50;77.60;;;;;;5075615;28;19924;-62
2022/07/25 06:23:20;;;;;;;;;;;27.90;77.60;;;;;;5081295;28;19931;-62
2022/07/25 06:25:46;;;;;;;;;;;27.70;77.40;;;;;;5094753;28;20344;-61
2022/07/25 06:28:13;;;;;;;;;;;27.70;77.60;;;;;;5078374;28;19925;-61
2022/07/25 06:30:45;;;;;;;;;;;27.50;77.70;;;;;;5082958;28;19924;-61
2022/07/25 06:33:10;;;;;;;;;;;27.30;76.20;;;;;;5091191;28;19929;-61
2022/07/25 06:35:36;;;;;;;;;;;27.50;77.60;;;;;;5093476;28;20342;-61
2022/07/25 06:38:02;;;;;;;;;;;27.90;77.80;;;;;;5095651;28;19924;-63
2022/07/25 06:40:27;;;;;;;;;;;27.80;77.70;;;;;;5094617;28;19931;-62
2022/07/25 06:42:53;;;;;;;;;;;27.70;77.70;;;;;;5094147;28;19924;-61
2022/07/25 06:45:19;;;;;;;;;;;27.70;77.80;;;;;;5087557;28;19982;-62
2022/07/25 06:47:44;;;;;;;;;;;27.80;77.90;;;;;;5080319;28;19970;-61
2022/07/25 06:50:10;;;;;;;;;;;27.90;77.90;;;;;;5107949;27;19966;-62
2022/07/25 06:52:36;;;;;;;;;;;28.10;78.20;;;;;;5094844;28;19928;-65
2022/07/25 06:55:02;;;;;;;;;;;28.10;77.70;;;;;;5085694;28;19924;-61
2022/07/25 06:57:28;;;;;;;;;;;27.80;77.90;;;;;;5075408;28;20255;-67
2022/07/25 06:59:54;;;;;;;;;;;28.10;77.70;;;;;;5075103;28;19931;-62
2022/07/25 07:02:19;;;;;;;;;;;28.00;77.80;;;;;;5090599;28;19977;-61
2022/07/25 07:04:45;;;;;;;;;;;28.00;77.60;;;;;;5087248;28;19928;-61
2022/07/25 07:07:11;;;;;;;;;;;28.00;77.70;;;;;;5088736;28;19928;-61
2022/07/25 07:09:37;;;;;;;;;;;28.20;78.00;;;;;;5095392;28;19924;-63
2022/07/25 07:12:03;;;;;;;;;;;28.20;77.70;;;;;;5093944;28;20336;-62
2022/07/25 07:14:28;;;;;;;;;;;28.20;77.20;;;;;;5094472;28;19924;-62
2022/07/25 07:16:54;;;;;;;;;;;28.50;77.30;;;;;;5087011;28;19928;-61
2022/07/25 07:19:19;;;;;;;;;;;28.50;77.40;;;;;;5076810;28;20406;-61
2022/07/25 07:21:45;;;;;;;;;;;28.70;77.10;;;;;;5077528;27;19963;-68
2022/07/25 07:24:11;;;;;;;;;;;28.80;77.10;;;;;;5086508;28;19932;-67
2022/07/25 07:26:36;;;;;;;;;;;28.70;76.80;;;;;;5084082;28;19932;-62
2022/07/25 07:29:02;;;;;;;;;;;28.60;76.80;;;;;;5093045;28;19969;-62
2022/07/25 07:31:28;;;;;;;;;;;28.90;76.60;;;;;;5094297;28;20015;-62
2022/07/25 07:33:53;;;;;;;;;;;28.90;76.40;;;;;;5081573;28;19928;-61
2022/07/25 07:36:19;;;;;;;;;;;29.10;76.20;;;;;;5074177;28;19929;-61
2022/07/25 07:38:45;;;;;;;;;;;29.10;76.10;;;;;;5091240;28;19979;-61
2022/07/25 07:41:11;;;;;;;;;;;29.00;75.70;;;;;;5074083;28;20294;-61
2022/07/25 07:43:37;;;;;;;;;;;28.90;75.30;;;;;;5079118;28;19931;-61
2022/07/25 07:46:05;;;;;;;;;;;29.20;75.30;;;;;;5092844;28;19924;-62
2022/07/25 07:48:31;;;;;;;;;;;29.20;74.10;;;;;;5093618;28;20438;-68
2022/07/25 07:50:57;;;;;;;;;;;29.30;75.40;;;;;;5076807;28;19924;-62
2022/07/25 07:55:42;;;;;;;;;;;29.40;75.40;;;;;;5077773;28;20362;-61
2022/07/25 07:56:08;;;;;;;;;;;29.20;74.80;;;;;;5074550;28;20267;-62
2022/07/25 07:58:34;;;;;;;;;;;29.30;75.30;;;;;;5074654;28;19939;-63
2022/07/25 08:00:59;;;;;;;;;;;29.30;75.10;;;;;;5076304;28;19924;-62
2022/07/25 08:03:26;;;;;;;;;;;28.90;75.30;;;;;;5072505;28;19928;-62
2022/07/25 08:05:52;;;;;;;;;;;28.90;75.80;;;;;;5086889;28;19928;-63
2022/07/25 08:08:18;;;;;;;;;;;28.80;75.80;;;;;;5092795;28;19924;-62
2022/07/25 08:10:44;;;;;;;;;;;28.60;75.60;;;;;;5082295;28;19924;-62
2022/07/25 08:13:23;;;;;;;;;;;28.90;76.70;;;;;;5077704;28;19970;-62
2022/07/25 08:15:50;;;;;;;;;;;28.90;75.40;;;;;;5079624;28;20349;-61
2022/07/25 08:18:15;;;;;;;;;;;28.90;76.80;;;;;;5094204;28;20015;-62
2022/07/25 08:20:41;;;;;;;;;;;28.40;76.30;;;;;;5088070;28;20011;-62
2022/07/25 08:23:06;;;;;;;;;;;28.60;76.50;;;;;;5073606;28;19924;-67
2022/07/25 08:25:33;;;;;;;;;;;28.70;76.40;;;;;;5072067;28;20394;-65
2022/07/25 08:27:59;;;;;;;;;;;28.50;76.30;;;;;;5092300;28;20007;-63
2022/07/25 08:30:25;;;;;;;;;;;28.90;76.30;;;;;;5088031;28;19990;-67
2022/07/25 08:32:58;;;;;;;;;;;28.90;76.60;;;;;;5076662;28;19978;-62
2022/07/25 08:35:24;;;;;;;;;;;28.80;75.40;;;;;;5073380;28;19924;-63
2022/07/25 08:37:50;;;;;;;;;;;29.10;76.60;;;;;;5084088;28;19920;-64
2022/07/25 08:40:16;;;;;;;;;;;29.10;76.20;;;;;;5093279;28;19981;-62
2022/07/25 08:42:42;;;;;;;;;;;29.00;76.70;;;;;;5096872;28;19920;-62
2022/07/25 08:45:08;;;;;;;;;;;29.00;76.30;;;;;;5073097;28;20283;-62
2022/07/25 08:47:34;;;;;;;;;;;29.00;76.20;;;;;;5103768;28;19965;-63
2022/07/25 08:50:01;;;;;;;;;;;28.90;76.10;;;;;;5093636;28;19924;-61
2022/07/25 08:52:27;;;;;;;;;;;28.70;76.40;;;;;;5088142;28;19966;-62
2022/07/25 08:54:52;;;;;;;;;;;28.60;76.30;;;;;;5080303;28;19986;-61
2022/07/25 08:57:18;;;;;;;;;;;28.60;76.40;;;;;;5093576;28;20289;-62
2022/07/25 08:59:43;;;;;;;;;;;28.40;76.20;;;;;;5076405;28;19932;-62
2022/07/25 09:02:12;;;;;;;;;;;28.50;76.30;;;;;;5077987;28;20487;-62
2022/07/25 09:04:37;;;;;;;;;;;28.70;76.40;;;;;;5075413;28;19924;-61
2022/07/25 09:07:03;;;;;;;;;;;28.70;76.00;;;;;;5072993;28;20003;-61
2022/07/25 09:09:33;;;;;;;;;;;28.50;76.10;;;;;;5081834;28;19924;-62
2022/07/25 09:11:58;;;;;;;;;;;28.80;76.30;;;;;;5093624;28;19931;-61
2022/07/25 09:14:24;;;;;;;;;;;28.70;75.80;;;;;;5094387;28;20316;-61
2022/07/25 09:16:50;;;;;;;;;;;28.50;75.50;;;;;;5083082;28;19970;-62
2022/07/25 09:19:16;;;;;;;;;;;28.20;74.80;;;;;;5077984;28;19932;-62
2022/07/25 09:21:42;;;;;;;;;;;28.20;75.20;;;;;;5083000;28;19931;-62
2022/07/25 09:24:08;;;;;;;;;;;28.40;75.30;;;;;;5076770;28;20019;-61
2022/07/25 09:26:47;;;;;;;;;;;28.30;74.80;;;;;;5078552;28;20366;-62
2022/07/25 09:29:22;;;;;;;;;;;28.20;73.70;;;;;;5076680;28;20020;-62
2022/07/25 09:31:48;;;;;;;;;;;28.00;73.80;;;;;;5081376;28;19924;-62
2022/07/25 09:34:37;;;;;;;;;;;28.10;75.30;;;;;;5110959;28;19938;-63
2022/07/25 09:37:03;;;;;;;;;;;28.00;74.20;;;;;;5034510;28;20303;-62
2022/07/25 09:39:48;;;;;;;;;;;28.00;75.60;;;;;;5034640;28;20394;-62
2022/07/25 09:42:17;;;;;;;;;;;28.00;74.90;;;;;;5044244;28;19960;-62
2022/07/25 09:44:43;;;;;;;;;;;28.20;75.20;;;;;;5054257;28;20404;-62
2022/07/25 09:47:09;;;;;;;;;;;28.00;76.10;;;;;;5054053;28;19924;-62
2022/07/25 09:49:39;;;;;;;;;;;28.00;76.50;;;;;;5053107;28;20302;-62
2022/07/25 09:52:07;;;;;;;;;;;27.40;74.60;;;;;;5053132;28;19995;-63
2022/07/25 09:54:33;;;;;;;;;;;27.80;76.10;;;;;;5045736;28;19925;-62
2022/07/25 09:56:59;;;;;;;;;;;27.90;76.30;;;;;;5034201;28;20020;-62
2022/07/25 09:59:24;;;;;;;;;;;27.70;76.50;;;;;;5069623;28;19924;-62
2022/07/25 10:02:00;;;;;;;;;;;27.50;76.60;;;;;;5052696;28;19932;-62
2022/07/25 10:04:32;;;;;;;;;;;27.60;75.60;;;;;;5051783;28;20305;-63
2022/07/25 10:07:08;;;;;;;;;;;27.80;75.70;;;;;;5037208;28;20424;-73
2022/07/25 10:09:45;;;;;;;;;;;27.60;75.70;;;;;;5053815;28;19929;-63
2022/07/25 10:12:12;;;;;;;;;;;27.70;75.90;;;;;;5040771;28;20275;-65
2022/07/25 10:14:38;;;;;;;;;;;27.40;77.10;;;;;;5062533;28;19931;-62
2022/07/25 10:17:03;;;;;;;;;;;27.80;77.30;;;;;;5075834;28;19967;-61
2022/07/25 10:19:38;;;;;;;;;;;27.70;76.90;;;;;;5075381;28;19925;-62
2022/07/25 10:22:05;;;;;;;;;;;27.70;75.90;;;;;;5076103;28;19931;-68
2022/07/25 10:24:36;;;;;;;;;;;27.80;75.80;;;;;;5078832;28;19930;-66
2022/07/25 10:27:06;;;;;;;;;;;27.70;75.90;;;;;;5094975;28;19932;-62
2022/07/25 10:29:32;;;;;;;;;;;27.80;76.00;;;;;;5079737;28;20290;-62
2022/07/25 10:32:04;;;;;;;;;;;27.80;77.30;;;;;;5075464;28;20390;-62
2022/07/25 10:34:30;;;;;;;;;;;27.90;77.40;;;;;;5077677;28;19920;-63
2022/07/25 10:36:56;;;;;;;;;;;28.10;78.00;;;;;;5080514;28;19939;-62
2022/07/25 10:39:22;;;;;;;;;;;27.70;76.90;;;;;;5094435;28;20297;-62
2022/07/25 10:41:50;;;;;;;;;;;28.00;77.20;;;;;;5095640;28;19920;-63
2022/07/25 10:44:15;;;;;;;;;;;28.10;77.30;;;;;;5110995;28;19967;-62
2022/07/25 10:46:44;;;;;;;;;;;27.80;76.60;;;;;;5082594;28;19967;-63
2022/07/25 10:49:20;;;;;;;;;;;27.90;76.60;;;;;;5111036;28;19931;-62
2022/07/25 10:51:56;;;;;;;;;;;27.90;75.00;;;;;;5095461;28;19935;-62
2022/07/25 10:54:21;;;;;;;;;;;28.00;74.90;;;;;;5093922;28;20101;-63
2022/07/25 10:56:51;;;;;;;;;;;27.80;75.50;;;;;;5092460;28;20476;-62
2022/07/25 10:59:24;;;;;;;;;;;27.80;73.90;;;;;;5103982;28;19931;-62
2022/07/25 11:01:50;;;;;;;;;;;27.90;75.30;;;;;;5092079;28;19993;-63
2022/07/25 11:04:15;;;;;;;;;;;28.10;75.80;;;;;;5074390;28;19928;-63
2022/07/25 11:06:41;;;;;;;;;;;27.90;75.10;;;;;;5075195;28;19956;-62
2022/07/25 11:09:19;;;;;;;;;;;28.00;74.70;;;;;;5085620;28;20429;-62
2022/07/25 11:11:49;;;;;;;;;;;28.00;73.80;;;;;;5090152;28;19982;-62
2022/07/25 11:14:18;;;;;;;;;;;27.90;75.00;;;;;;5081299;28;20083;-62
2022/07/25 11:16:44;;;;;;;;;;;27.80;73.30;;;;;;5094010;28;19963;-62
2022/07/25 11:19:24;;;;;;;;;;;28.10;74.80;;;;;;5104308;28;19978;-62
2022/07/25 11:21:51;;;;;;;;;;;27.80;73.50;;;;;;5094454;28;19925;-62
2022/07/25 11:24:17;;;;;;;;;;;28.00;75.30;;;;;;5092978;28;20019;-63
2022/07/25 11:26:46;;;;;;;;;;;27.80;75.20;;;;;;5093457;28;20058;-62
2022/07/25 11:29:18;;;;;;;;;;;27.50;74.00;;;;;;5089433;28;19970;-62
2022/07/25 11:31:50;;;;;;;;;;;27.70;74.30;;;;;;5090053;28;19954;-62
2022/07/25 11:34:15;;;;;;;;;;;28.00;76.50;;;;;;5073866;28;20027;-62
2022/07/25 11:36:41;;;;;;;;;;;27.50;76.50;;;;;;5099895;28;19971;-62
2022/07/25 11:39:07;;;;;;;;;;;27.70;76.70;;;;;;5093317;28;20288;-62
2022/07/25 11:41:33;;;;;;;;;;;27.60;77.30;;;;;;5076555;28;19928;-63
2022/07/25 11:43:59;;;;;;;;;;;27.60;77.20;;;;;;5074467;28;20298;-62
2022/07/25 11:46:24;;;;;;;;;;;27.60;78.10;;;;;;5085543;28;19950;-62
2022/07/25 11:48:50;;;;;;;;;;;27.60;78.70;;;;;;5078227;28;20378;-62
2022/07/25 11:51:16;;;;;;;;;;;27.90;79.00;;;;;;5087761;28;20010;-62
2022/07/25 11:53:51;;;;;;;;;;;27.70;79.60;;;;;;5085243;28;19924;-62
2022/07/25 11:56:21;;;;;;;;;;;27.30;79.60;;;;;;5116334;27;19924;-62
2022/07/25 11:58:59;;;;;;;;;;;27.30;78.20;;;;;;5093706;28;20357;-62
2022/07/25 12:01:25;;;;;;;;;;;27.40;78.00;;;;;;5075036;28;19978;-62
2022/07/25 12:03:51;;;;;;;;;;;27.40;79.10;;;;;;5055920;28;19924;-62
2022/07/25 12:06:18;;;;;;;;;;;27.50;79.60;;;;;;5077361;28;21593;-62
2022/07/25 12:08:44;;;;;;;;;;;27.50;79.60;;;;;;5094184;28;19924;-62
2022/07/25 12:11:19;;;;;;;;;;;27.30;79.40;;;;;;5081354;28;19924;-62
2022/07/25 12:13:45;;;;;;;;;;;27.40;78.80;;;;;;5073212;28;20026;-63
2022/07/25 12:16:11;;;;;;;;;;;27.30;79.80;;;;;;5073916;28;20023;-62
2022/07/25 12:18:37;;;;;;;;;;;27.50;80.20;;;;;;5074166;28;19939;-62
2022/07/25 12:21:02;;;;;;;;;;;27.20;80.00;;;;;;5075205;28;20840;-62
2022/07/25 12:23:28;;;;;;;;;;;27.40;80.10;;;;;;5084086;28;20301;-63
2022/07/25 12:25:53;;;;;;;;;;;27.50;80.20;;;;;;5094205;28;20289;-62
2022/07/25 12:28:19;;;;;;;;;;;27.30;80.10;;;;;;5079799;28;19978;-62
2022/07/25 12:30:45;;;;;;;;;;;27.30;80.10;;;;;;5073674;28;20378;-62
2022/07/25 12:33:11;;;;;;;;;;;27.40;80.20;;;;;;5075857;28;19925;-62
2022/07/25 12:35:38;;;;;;;;;;;27.20;80.00;;;;;;5109501;28;20023;-62
2022/07/25 12:38:04;;;;;;;;;;;27.30;80.40;;;;;;5093803;28;19924;-62
2022/07/25 12:40:30;;;;;;;;;;;27.20;80.00;;;;;;5094147;28;19932;-62
2022/07/25 12:42:56;;;;;;;;;;;27.40;79.90;;;;;;5088655;28;20370;-62
2022/07/25 12:45:22;;;;;;;;;;;27.20;79.90;;;;;;5086605;28;19924;-62
2022/07/25 12:47:48;;;;;;;;;;;27.20;79.70;;;;;;5093644;28;19924;-62
2022/07/25 12:50:14;;;;;;;;;;;27.20;79.60;;;;;;5097544;28;20014;-62
2022/07/25 12:52:39;;;;;;;;;;;27.10;79.50;;;;;;5097864;28;19967;-62
2022/07/25 12:55:06;;;;;;;;;;;27.40;79.60;;;;;;5084239;28;19935;-62
2022/07/25 12:57:31;;;;;;;;;;;27.30;79.70;;;;;;5098610;28;19924;-62
2022/07/25 12:59:57;;;;;;;;;;;26.90;79.30;;;;;;5112493;28;19931;-62
2022/07/25 13:02:23;;;;;;;;;;;27.40;80.00;;;;;;5085197;28;19963;-62
2022/07/25 13:04:49;;;;;;;;;;;27.30;79.50;;;;;;5077075;28;20357;-62
2022/07/25 13:07:15;;;;;;;;;;;27.50;79.50;;;;;;5095195;28;19974;-62
2022/07/25 13:09:41;;;;;;;;;;;27.60;79.70;;;;;;5113355;28;19924;-62
2022/07/25 13:12:07;;;;;;;;;;;27.40;79.60;;;;;;5097820;28;19959;-62
2022/07/25 13:14:32;;;;;;;;;;;27.20;78.60;;;;;;5082623;28;19924;-62
2022/07/25 13:16:58;;;;;;;;;;;27.40;79.10;;;;;;5086952;28;20374;-62
2022/07/25 13:19:23;;;;;;;;;;;27.50;79.10;;;;;;5100499;27;19935;-62
2022/07/25 13:21:49;;;;;;;;;;;27.60;79.10;;;;;;5097572;28;19977;-62
2022/07/25 13:24:15;;;;;;;;;;;27.40;78.50;;;;;;5090081;28;20381;-62
2022/07/25 13:26:41;;;;;;;;;;;27.30;78.20;;;;;;5113626;27;19924;-62
2022/07/25 13:29:07;;;;;;;;;;;27.50;77.00;;;;;;5077559;28;20289;-61
2022/07/25 13:31:33;;;;;;;;;;;27.20;77.60;;;;;;5076842;28;19925;-62
2022/07/25 13:33:59;;;;;;;;;;;27.50;77.90;;;;;;5093189;28;19924;-62
2022/07/25 13:36:25;;;;;;;;;;;27.30;77.20;;;;;;5091456;28;19924;-63
2022/07/25 13:38:50;;;;;;;;;;;27.60;77.50;;;;;;5095495;28;19924;-62
2022/07/25 13:41:16;;;;;;;;;;;27.50;77.30;;;;;;5111449;28;19927;-63
2022/07/25 13:43:42;;;;;;;;;;;27.70;78.30;;;;;;5130049;27;19956;-62
2022/07/25 13:46:07;;;;;;;;;;;27.40;77.10;;;;;;5083384;28;19931;-62
2022/07/25 13:48:33;;;;;;;;;;;27.50;77.20;;;;;;5082554;28;19924;-62
2022/07/25 13:50:59;;;;;;;;;;;27.40;76.50;;;;;;5095658;28;19924;-62
2022/07/25 13:53:24;;;;;;;;;;;27.60;76.70;;;;;;5097590;28;20401;-62
2022/07/25 13:55:50;;;;;;;;;;;27.60;76.50;;;;;;5090803;28;19924;-62
2022/07/25 13:58:16;;;;;;;;;;;27.90;76.50;;;;;;5089413;28;19928;-62
2022/07/25 14:00:41;;;;;;;;;;;27.50;75.60;;;;;;5094447;28;19924;-62
2022/07/25 14:03:07;;;;;;;;;;;27.70;76.00;;;;;;5096511;28;19974;-62
2022/07/25 14:05:33;;;;;;;;;;;27.50;75.70;;;;;;5095067;28;20011;-62
2022/07/25 14:07:58;;;;;;;;;;;27.50;75.60;;;;;;5079665;28;20386;-62
2022/07/25 14:10:24;;;;;;;;;;;27.50;75.80;;;;;;5090717;28;19971;-62
2022/07/25 14:12:49;;;;;;;;;;;27.50;75.90;;;;;;5095050;28;19924;-62